createdAt,value
2022-09-20T00:01:07.490Z,44.00
2022-09-20T00:03:30.766Z,43.86
2022-09-20T00:05:53.867Z,43.98
2022-09-20T00:08:17.288Z,44.08
2022-09-20T00:10:40.463Z,44.15
2022-09-20T00:13:03.666Z,44.15
2022-09-20T00:15:28.195Z,44.53
2022-09-20T00:17:51.192Z,44.46
2022-09-20T00:20:14.338Z,44.28
2022-09-20T00:22:37.542Z,44.39
2022-09-20T00:25:00.628Z,44.47
2022-09-20T00:27:23.838Z,44.65
2022-09-20T00:29:47.145Z,44.34
2022-09-20T00:32:11.742Z,44.58
2022-09-20T00:34:52.123Z,44.85
2022-09-20T00:37:15.276Z,45.05
2022-09-20T00:39:38.449Z,44.74
2022-09-20T00:42:01.613Z,44.86
2022-09-20T00:44:44.548Z,45.04
2022-09-20T00:47:07.845Z,45.13
2022-09-20T00:49:32.377Z,45.23
2022-09-20T00:51:56.494Z,45.15
2022-09-20T00:54:20.733Z,44.97
2022-09-20T00:56:44.344Z,44.81
2022-09-20T00:59:09.741Z,44.65
2022-09-20T01:01:33.014Z,44.86
2022-09-20T01:03:56.268Z,44.47
2022-09-20T01:06:20.794Z,44.96
2022-09-20T01:08:44.819Z,45.11
2022-09-20T01:11:07.990Z,44.93
2022-09-20T01:13:31.234Z,44.94
2022-09-20T01:15:54.395Z,45.13
2022-09-20T01:18:17.617Z,45.12
2022-09-20T01:20:42.062Z,45.24
2022-09-20T01:23:22.922Z,45.39
2022-09-20T01:26:00.113Z,45.31
2022-09-20T01:28:24.758Z,45.04
2022-09-20T01:30:49.819Z,45.63
2022-09-20T01:33:15.562Z,45.53
2022-09-20T01:35:38.714Z,45.79
2022-09-20T01:38:10.985Z,46.04
2022-09-20T01:40:37.555Z,45.82
2022-09-20T01:43:04.156Z,45.82
2022-09-20T01:45:29.862Z,46.01
2022-09-20T01:47:58.610Z,46.24
2022-09-20T01:50:26.717Z,45.91
2022-09-20T01:53:35.541Z,46.12
2022-09-20T01:56:26.758Z,46.23
2022-09-20T01:59:24.159Z,45.79
2022-09-20T02:02:18.638Z,46.19
2022-09-20T02:05:18.940Z,45.73
2022-09-20T02:08:09.368Z,45.79
2022-09-20T02:10:40.324Z,46.36
2022-09-20T02:13:05.128Z,46.54
2022-09-20T02:15:42.829Z,46.51
2022-09-20T02:18:12.669Z,46.66
2022-09-20T02:20:40.485Z,46.54
2022-09-20T02:23:23.163Z,46.58
2022-09-20T02:26:04.192Z,46.40
2022-09-20T02:28:32.881Z,46.81
2022-09-20T02:30:57.857Z,46.32
2022-09-20T02:33:35.730Z,46.19
2022-09-20T02:36:09.767Z,45.86
2022-09-20T02:38:47.527Z,45.64
2022-09-20T02:41:30.958Z,45.19
2022-09-20T02:43:57.561Z,45.89
2022-09-20T02:46:23.781Z,45.49
2022-09-20T02:48:50.177Z,45.20
2022-09-20T02:51:17.938Z,45.31
2022-09-20T02:53:44.489Z,45.43
2022-09-20T02:56:12.026Z,45.39
2022-09-20T02:58:41.305Z,45.55
2022-09-20T03:01:07.066Z,45.46
2022-09-20T03:03:35.947Z,45.39
2022-09-20T03:06:09.449Z,45.54
2022-09-20T03:08:36.134Z,45.52
2022-09-20T03:11:04.935Z,45.71
2022-09-20T03:13:33.415Z,46.12
2022-09-20T03:16:02.379Z,46.20
2022-09-20T03:18:32.752Z,46.90
2022-09-20T03:21:01.712Z,46.09
2022-09-20T03:23:37.071Z,46.21
2022-09-20T03:26:04.147Z,46.24
2022-09-20T03:28:43.634Z,46.97
2022-09-20T03:31:24.055Z,46.83
2022-09-20T03:33:51.128Z,46.83
2022-09-20T03:36:24.965Z,47.06
2022-09-20T03:38:56.929Z,47.09
2022-09-20T03:41:34.817Z,47.37
2022-09-20T03:44:12.038Z,47.07
2022-09-20T03:46:37.127Z,47.25
2022-09-20T03:49:31.065Z,47.32
2022-09-20T03:51:59.673Z,47.40
2022-09-20T03:54:43.962Z,47.73
2022-09-20T03:57:36.394Z,47.81
2022-09-20T04:00:10.001Z,47.82
2022-09-20T04:02:40.068Z,47.93
2022-09-20T04:05:04.811Z,47.69
2022-09-20T04:07:31.582Z,47.17
2022-09-20T04:10:03.391Z,47.90
2022-09-20T04:12:30.819Z,48.20
2022-09-20T04:14:55.837Z,48.15
2022-09-20T04:17:26.540Z,47.84
2022-09-20T04:19:52.168Z,48.40
2022-09-20T04:22:16.353Z,48.08
2022-09-20T04:24:43.142Z,47.95
2022-09-20T04:27:09.709Z,48.53
2022-09-20T04:29:36.100Z,48.47
2022-09-20T04:32:03.850Z,48.82
2022-09-20T04:34:49.543Z,49.14
2022-09-20T04:37:19.556Z,48.73
2022-09-20T04:39:44.441Z,48.83
2022-09-20T04:42:45.063Z,49.40
2022-09-20T04:45:35.335Z,49.67
2022-09-20T04:48:39.231Z,49.59
2022-09-20T04:51:39.925Z,49.19
2022-09-20T04:54:39.514Z,49.88
2022-09-20T04:57:18.914Z,49.70
2022-09-20T04:59:46.825Z,49.60
2022-09-20T05:02:32.290Z,49.25
2022-09-20T05:05:29.753Z,49.25
2022-09-20T05:08:37.174Z,49.19
2022-09-20T05:11:18.518Z,49.30
2022-09-20T05:13:54.914Z,49.41
2022-09-20T05:16:21.053Z,49.18
2022-09-20T05:19:14.804Z,49.32
2022-09-20T05:21:51.629Z,49.77
2022-09-20T05:24:22.060Z,49.40
2022-09-20T05:26:52.008Z,49.11
2022-09-20T05:29:19.665Z,48.82
2022-09-20T05:31:44.047Z,49.05
2022-09-20T05:34:12.935Z,48.91
2022-09-20T05:36:41.634Z,48.87
2022-09-20T05:39:13.703Z,48.77
2022-09-20T05:41:39.590Z,48.39
2022-09-20T05:44:06.242Z,48.08
2022-09-20T05:46:37.049Z,47.84
2022-09-20T05:49:05.417Z,47.78
2022-09-20T05:51:42.340Z,47.60
2022-09-20T05:54:25.230Z,47.32
2022-09-20T05:56:50.808Z,47.29
2022-09-20T05:59:33.634Z,47.15
2022-09-20T06:02:11.691Z,46.79
2022-09-20T06:04:37.251Z,46.80
2022-09-20T06:07:04.136Z,46.99
2022-09-20T06:09:32.340Z,46.98
2022-09-20T06:12:16.310Z,46.63
2022-09-20T06:14:43.281Z,46.57
2022-09-20T06:17:12.051Z,46.49
2022-09-20T06:19:37.922Z,46.60
2022-09-20T06:22:03.931Z,46.20
2022-09-20T06:24:35.466Z,46.75
2022-09-20T06:26:58.721Z,47.18
2022-09-20T06:29:25.891Z,46.86
2022-09-20T06:31:49.179Z,46.78
2022-09-20T06:34:14.666Z,46.60
2022-09-20T06:36:56.548Z,46.61
2022-09-20T06:39:40.808Z,46.80
2022-09-20T06:42:04.249Z,46.71
2022-09-20T06:44:27.417Z,46.41
2022-09-20T06:46:53.638Z,45.98
2022-09-20T06:49:18.169Z,45.94
2022-09-20T06:51:41.467Z,45.36
2022-09-20T06:54:04.811Z,45.27
2022-09-20T06:56:29.710Z,45.58
2022-09-20T06:58:53.293Z,45.40
2022-09-20T07:01:26.577Z,45.32
2022-09-20T07:03:52.751Z,45.38
2022-09-20T07:06:19.872Z,45.16
2022-09-20T07:08:43.449Z,44.92
2022-09-20T07:11:09.383Z,45.22
2022-09-20T07:13:32.687Z,45.05
2022-09-20T07:16:01.532Z,45.21
2022-09-20T07:18:24.697Z,45.12
2022-09-20T07:20:47.881Z,44.98
2022-09-20T07:23:12.400Z,44.88
2022-09-20T07:25:35.631Z,44.97
2022-09-20T07:27:58.817Z,44.60
2022-09-20T07:30:22.109Z,44.01
2022-09-20T07:32:45.317Z,43.52
2022-09-20T07:35:09.553Z,42.41
2022-09-20T07:37:36.864Z,42.01
2022-09-20T07:40:02.207Z,41.96
2022-09-20T07:42:25.540Z,41.21
2022-09-20T07:44:48.998Z,40.90
2022-09-20T07:47:14.286Z,41.06
2022-09-20T07:49:37.598Z,40.71
2022-09-20T07:52:00.813Z,40.79
2022-09-20T07:54:24.187Z,40.80
2022-09-20T07:56:48.962Z,40.76
2022-09-20T07:59:12.322Z,41.06
2022-09-20T08:01:35.607Z,41.14
2022-09-20T08:03:58.903Z,40.98
2022-09-20T08:06:22.353Z,41.07
2022-09-20T08:08:45.681Z,40.93
2022-09-20T08:11:09.983Z,40.82
2022-09-20T08:16:20.487Z,41.00
2022-09-20T08:18:47.460Z,40.07
2022-09-20T08:21:11.676Z,39.60
2022-09-20T08:23:36.157Z,39.31
2022-09-20T08:25:59.210Z,38.78
2022-09-20T08:28:22.392Z,39.14
2022-09-20T08:30:47.040Z,38.35
2022-09-20T08:33:11.539Z,38.29
2022-09-20T08:35:38.168Z,38.26
2022-09-20T08:40:45.194Z,37.86
2022-09-20T08:43:09.067Z,37.46
2022-09-20T08:45:35.500Z,37.05
2022-09-20T08:48:01.641Z,37.49
2022-09-20T08:50:24.851Z,36.89
2022-09-20T08:52:49.416Z,37.33
2022-09-20T08:55:16.887Z,37.18
2022-09-20T08:57:40.292Z,37.41
2022-09-20T09:00:04.706Z,37.38
2022-09-20T09:02:31.055Z,37.19
2022-09-20T09:04:56.088Z,37.30
2022-09-20T09:07:21.800Z,37.48
2022-09-20T09:09:46.625Z,37.34
2022-09-20T09:12:16.409Z,37.42
2022-09-20T09:14:55.121Z,37.17
2022-09-20T09:17:19.432Z,37.33
2022-09-20T09:19:47.602Z,36.49
2022-09-20T09:22:12.205Z,36.26
2022-09-20T09:24:35.515Z,36.20
2022-09-20T09:27:07.625Z,36.22
2022-09-20T09:29:34.773Z,34.71
2022-09-20T09:31:58.261Z,34.92
2022-09-20T09:34:26.417Z,34.30
2022-09-20T09:36:49.713Z,34.39
2022-09-20T09:39:22.168Z,33.89
2022-09-20T09:41:46.458Z,32.70
2022-09-20T09:44:22.901Z,33.14
2022-09-20T09:46:46.115Z,32.71
2022-09-20T09:49:12.862Z,32.31
2022-09-20T09:51:36.383Z,32.72
2022-09-20T09:53:59.681Z,32.88
2022-09-20T09:56:35.286Z,32.06
2022-09-20T09:59:24.429Z,32.13
2022-09-20T10:01:53.394Z,32.18
2022-09-20T10:04:18.734Z,32.59
2022-09-20T10:06:45.392Z,32.10
2022-09-20T10:09:28.345Z,31.61
2022-09-20T10:11:59.900Z,31.33
2022-09-20T10:14:30.456Z,32.23
2022-09-20T10:17:02.308Z,31.91
2022-09-20T10:19:32.135Z,31.82
2022-09-20T10:21:57.369Z,31.52
2022-09-20T10:24:31.136Z,31.59
2022-09-20T10:27:19.330Z,31.09
2022-09-20T10:29:49.811Z,30.91
2022-09-20T10:32:21.385Z,31.36
2022-09-20T10:34:54.011Z,31.18
2022-09-20T10:37:19.197Z,31.15
2022-09-20T10:39:42.408Z,30.81
2022-09-20T10:42:27.139Z,31.09
2022-09-20T10:45:04.417Z,31.01
2022-09-20T10:47:29.410Z,31.32
2022-09-20T10:49:57.368Z,31.18
2022-09-20T10:52:31.693Z,31.17
2022-09-20T10:55:09.383Z,31.27
2022-09-20T10:57:48.739Z,31.43
2022-09-20T11:00:21.256Z,30.84
2022-09-20T11:02:49.695Z,31.13
2022-09-20T11:05:31.541Z,30.79
2022-09-20T11:08:00.284Z,31.28
2022-09-20T11:10:25.518Z,31.13
2022-09-20T11:12:51.388Z,31.02
2022-09-20T11:15:18.537Z,31.02
2022-09-20T11:17:43.013Z,30.74
2022-09-20T11:20:08.724Z,30.62
2022-09-20T11:22:35.393Z,30.96
2022-09-20T11:25:03.019Z,31.47
2022-09-20T11:27:29.706Z,31.30
2022-09-20T11:29:54.728Z,31.35
2022-09-20T11:32:22.171Z,31.61
2022-09-20T11:34:53.638Z,31.68
2022-09-20T11:37:16.874Z,31.87
2022-09-20T11:39:41.043Z,31.34
2022-09-20T11:42:05.220Z,31.21
2022-09-20T11:44:28.559Z,31.28
2022-09-20T11:46:53.507Z,31.19
2022-09-20T11:49:19.714Z,31.33
2022-09-20T11:52:11.251Z,31.23
2022-09-20T11:55:16.370Z,31.67
2022-09-20T11:57:39.658Z,31.83
2022-09-20T12:00:04.233Z,31.56
2022-09-20T12:02:36.573Z,31.49
2022-09-20T12:05:02.108Z,31.41
2022-09-20T12:07:26.106Z,31.73
2022-09-20T12:09:54.178Z,31.66
2022-09-20T12:12:20.230Z,32.08
2022-09-20T12:14:43.427Z,32.01
2022-09-20T12:17:07.267Z,31.64
2022-09-20T12:19:40.153Z,31.50
2022-09-20T12:22:29.556Z,31.63
2022-09-20T12:25:14.433Z,31.89
2022-09-20T12:27:58.231Z,31.32
2022-09-20T12:30:22.345Z,31.35
2022-09-20T12:32:56.474Z,31.39
2022-09-20T12:35:53.314Z,31.67
2022-09-20T12:38:40.230Z,31.59
2022-09-20T12:41:09.112Z,31.30
2022-09-20T12:43:32.634Z,31.13
2022-09-20T12:45:59.912Z,31.47
2022-09-20T12:48:26.201Z,31.33
2022-09-20T12:51:19.937Z,31.12
2022-09-20T12:53:45.221Z,31.50
2022-09-20T12:56:08.591Z,31.61
2022-09-20T12:58:45.198Z,31.20
2022-09-20T13:01:29.890Z,30.65
2022-09-20T13:03:53.242Z,31.05
2022-09-20T13:06:24.233Z,30.47
2022-09-20T13:08:49.317Z,30.67
2022-09-20T13:11:17.449Z,30.73
2022-09-20T13:13:42.239Z,30.62
2022-09-20T13:16:06.408Z,30.90
2022-09-20T13:18:29.767Z,30.96
2022-09-20T13:20:53.905Z,30.42
2022-09-20T13:23:20.431Z,30.63
2022-09-20T13:25:45.091Z,30.51
2022-09-20T13:28:08.827Z,30.81
2022-09-20T13:30:32.726Z,30.73
2022-09-20T13:32:56.902Z,31.04
2022-09-20T13:35:21.551Z,30.75
2022-09-20T13:37:49.374Z,30.59
2022-09-20T13:40:18.134Z,30.89
2022-09-20T13:42:44.061Z,30.82
2022-09-20T13:45:08.156Z,30.66
2022-09-20T13:47:31.934Z,30.61
2022-09-20T13:50:00.312Z,30.63
2022-09-20T13:52:27.176Z,30.84
2022-09-20T13:54:50.383Z,30.72
2022-09-20T13:57:16.614Z,30.62
2022-09-20T13:59:44.991Z,31.02
2022-09-20T14:02:14.254Z,30.89
2022-09-20T14:04:37.430Z,30.97
2022-09-20T14:07:00.905Z,30.86
2022-09-20T14:09:28.524Z,30.74
2022-09-20T14:11:51.725Z,31.25
2022-09-20T14:14:17.535Z,31.45
2022-09-20T14:16:46.834Z,30.95
2022-09-20T14:19:09.979Z,30.92
2022-09-20T14:21:33.891Z,30.91
2022-09-20T14:23:58.354Z,31.08
2022-09-20T14:26:26.344Z,30.92
2022-09-20T14:28:49.625Z,30.85
2022-09-20T14:31:14.507Z,30.97
2022-09-20T14:33:41.202Z,31.04
2022-09-20T14:36:04.511Z,30.98
2022-09-20T14:38:27.640Z,30.96
2022-09-20T14:40:51.816Z,31.14
2022-09-20T14:43:24.280Z,30.69
2022-09-20T14:45:53.416Z,30.82
2022-09-20T14:48:35.142Z,30.64
2022-09-20T14:51:22.581Z,30.70
2022-09-20T14:53:45.940Z,30.39
2022-09-20T14:56:11.444Z,30.51
2022-09-20T14:58:34.958Z,30.59
2022-09-20T15:00:59.532Z,30.19
2022-09-20T15:03:26.672Z,30.18
2022-09-20T15:05:49.978Z,30.55
2022-09-20T15:08:15.546Z,30.48
2022-09-20T15:10:38.678Z,30.50
2022-09-20T15:13:01.892Z,30.31
2022-09-20T15:15:25.032Z,30.31
2022-09-20T15:17:48.876Z,30.34
2022-09-20T15:20:19.591Z,30.35
2022-09-20T15:22:46.533Z,30.06
2022-09-20T15:25:14.280Z,30.40
2022-09-20T15:27:37.656Z,30.40
2022-09-20T15:30:02.837Z,30.63
2022-09-20T15:32:26.115Z,30.16
2022-09-20T15:34:49.251Z,30.48
2022-09-20T15:37:12.481Z,30.57
2022-09-20T15:39:35.655Z,30.36
2022-09-20T15:42:00.210Z,30.34
2022-09-20T15:44:23.155Z,30.36
2022-09-20T15:46:46.653Z,30.60
2022-09-20T15:49:11.333Z,30.58
2022-09-20T15:51:35.396Z,30.64
2022-09-20T15:54:00.150Z,30.74
2022-09-20T15:56:23.916Z,30.85
2022-09-20T15:58:50.286Z,31.01
2022-09-20T16:01:15.608Z,30.68
2022-09-20T16:03:38.923Z,30.96
2022-09-20T16:06:04.509Z,30.98
2022-09-20T16:08:28.661Z,30.64
2022-09-20T16:10:57.482Z,30.76
2022-09-20T16:13:20.663Z,31.08
2022-09-20T16:15:45.308Z,31.14
2022-09-20T16:18:41.251Z,31.16
2022-09-20T16:21:08.078Z,31.14
2022-09-20T16:23:31.249Z,31.41
2022-09-20T16:25:55.037Z,31.56
2022-09-20T16:28:18.202Z,31.25
2022-09-20T16:30:41.492Z,31.55
2022-09-20T16:33:06.306Z,31.61
2022-09-20T16:35:29.538Z,32.04
2022-09-20T16:37:52.676Z,31.90
2022-09-20T16:40:16.138Z,32.01
2022-09-20T16:42:39.284Z,31.97
2022-09-20T16:45:02.462Z,32.07
2022-09-20T16:47:26.293Z,32.06
2022-09-20T16:49:51.645Z,32.04
2022-09-20T16:52:14.783Z,32.07
2022-09-20T16:54:38.290Z,32.14
2022-09-20T16:57:01.453Z,32.38
2022-09-20T16:59:24.905Z,32.43
2022-09-20T17:01:48.378Z,32.90
2022-09-20T17:04:13.531Z,32.59
2022-09-20T17:06:38.700Z,32.67
2022-09-20T17:09:01.946Z,32.84
2022-09-20T17:11:26.282Z,32.53
2022-09-20T17:13:51.435Z,32.68
2022-09-20T17:16:15.459Z,32.90
2022-09-20T17:18:41.914Z,32.88
2022-09-20T17:21:06.245Z,32.85
2022-09-20T17:23:32.188Z,32.79
2022-09-20T17:26:04.452Z,32.98
2022-09-20T17:28:27.618Z,32.83
2022-09-20T17:30:50.880Z,33.17
2022-09-20T17:33:14.870Z,33.15
2022-09-20T17:35:38.003Z,32.92
2022-09-20T17:38:01.204Z,33.18
2022-09-20T17:40:25.790Z,33.02
2022-09-20T17:42:49.015Z,33.04
2022-09-20T17:45:12.454Z,32.98
2022-09-20T17:47:35.676Z,33.21
2022-09-20T17:49:58.835Z,33.70
2022-09-20T17:52:22.002Z,33.56
2022-09-20T17:54:45.261Z,33.80
2022-09-20T17:57:09.767Z,33.64
2022-09-20T17:59:34.423Z,33.35
2022-09-20T18:01:57.613Z,33.41
2022-09-20T18:04:24.492Z,33.07
2022-09-20T18:06:48.491Z,32.96
2022-09-20T18:09:12.887Z,33.21
2022-09-20T18:11:36.447Z,33.50
2022-09-20T18:14:01.355Z,33.27
2022-09-20T18:16:24.905Z,33.17
2022-09-20T18:18:48.106Z,35.09
2022-09-20T18:21:13.148Z,34.45
2022-09-20T18:23:36.281Z,34.01
2022-09-20T18:26:17.086Z,33.90
2022-09-20T18:28:40.279Z,34.43
2022-09-20T18:31:05.092Z,35.10
2022-09-20T18:33:28.302Z,36.17
2022-09-20T18:35:51.476Z,35.98
2022-09-20T18:38:17.307Z,36.04
2022-09-20T18:40:42.013Z,35.79
2022-09-20T18:43:05.463Z,35.79
2022-09-20T18:45:28.961Z,35.85
2022-09-20T18:47:59.655Z,35.88
2022-09-20T18:50:24.506Z,35.96
2022-09-20T18:52:47.949Z,36.01
2022-09-20T18:55:12.006Z,36.33
2022-09-20T18:57:35.670Z,36.53
2022-09-20T19:00:03.604Z,36.33
2022-09-20T19:02:55.402Z,36.64
2022-09-20T19:05:28.323Z,37.06
2022-09-20T19:08:00.234Z,36.72
2022-09-20T19:10:26.285Z,36.75
2022-09-20T19:12:51.383Z,36.69
2022-09-20T19:15:35.522Z,37.15
2022-09-20T19:18:07.391Z,36.88
2022-09-20T19:20:33.183Z,36.70
2022-09-20T19:23:01.750Z,36.46
2022-09-20T19:25:26.340Z,36.54
2022-09-20T19:27:49.961Z,36.66
2022-09-20T19:30:15.030Z,36.44
2022-09-20T19:32:38.898Z,35.95
2022-09-20T19:35:04.310Z,36.32
2022-09-20T19:37:31.669Z,36.10
2022-09-20T19:40:02.198Z,36.52
2022-09-20T19:42:28.703Z,36.50
2022-09-20T19:44:56.341Z,37.03
2022-09-20T19:47:25.474Z,36.97
2022-09-20T19:49:52.694Z,37.12
2022-09-20T19:52:17.493Z,37.12
2022-09-20T19:54:45.771Z,36.91
2022-09-20T19:57:12.717Z,37.79
2022-09-20T19:59:36.672Z,38.24
2022-09-20T20:02:00.575Z,38.97
2022-09-20T20:04:24.348Z,38.92
2022-09-20T20:06:52.723Z,39.37
2022-09-20T20:09:20.226Z,39.48
2022-09-20T20:11:45.957Z,39.88
2022-09-20T20:14:15.348Z,39.80
2022-09-20T20:16:44.305Z,39.72
2022-09-20T20:19:14.023Z,39.94
2022-09-20T20:21:41.331Z,39.69
2022-09-20T20:24:07.546Z,39.46
2022-09-20T20:26:32.119Z,40.08
2022-09-20T20:28:55.302Z,39.74
2022-09-20T20:31:18.486Z,39.80
2022-09-20T20:33:41.745Z,39.79
2022-09-20T20:36:06.162Z,39.89
2022-09-20T20:38:30.142Z,39.79
2022-09-20T20:41:00.933Z,39.51
2022-09-20T20:43:26.107Z,39.07
2022-09-20T20:45:51.130Z,39.36
2022-09-20T20:48:14.407Z,39.14
2022-09-20T20:50:37.738Z,38.81
2022-09-20T20:53:01.022Z,39.06
2022-09-20T20:55:24.692Z,39.76
2022-09-20T20:57:54.321Z,39.41
2022-09-20T21:00:18.990Z,38.99
2022-09-20T21:02:42.142Z,38.97
2022-09-20T21:05:07.028Z,38.65
2022-09-20T21:07:30.109Z,39.22
2022-09-20T21:09:53.526Z,39.04
2022-09-20T21:12:16.669Z,38.56
2022-09-20T21:14:41.080Z,38.19
2022-09-20T21:17:05.611Z,37.93
2022-09-20T21:19:28.512Z,37.95
2022-09-20T21:21:51.700Z,38.19
2022-09-20T21:24:17.279Z,38.88
2022-09-20T21:26:40.754Z,38.82
2022-09-20T21:29:04.825Z,38.32
2022-09-20T21:31:28.640Z,38.42
2022-09-20T21:33:53.246Z,39.22
2022-09-20T21:36:16.629Z,38.80
2022-09-20T21:38:40.061Z,38.20
2022-09-20T21:41:07.546Z,38.46
2022-09-20T21:43:30.942Z,38.08
2022-09-20T21:45:57.127Z,38.17
2022-09-20T21:48:20.370Z,37.83
2022-09-20T21:50:45.029Z,38.31
2022-09-20T21:53:08.202Z,38.66
2022-09-20T21:55:31.527Z,39.15
2022-09-20T21:57:54.713Z,39.26
2022-09-20T22:00:17.921Z,39.71
2022-09-20T22:02:41.224Z,39.15
2022-09-20T22:05:04.611Z,38.90
2022-09-20T22:07:29.153Z,39.05
2022-09-20T22:09:52.093Z,39.57
2022-09-20T22:12:15.257Z,39.67
2022-09-20T22:14:39.984Z,40.36
2022-09-20T22:17:03.127Z,40.02
2022-09-20T22:19:26.293Z,39.29
2022-09-20T22:21:50.985Z,39.70
2022-09-20T22:24:15.632Z,39.83
2022-09-20T22:26:39.803Z,39.79
2022-09-20T22:29:03.079Z,39.82
2022-09-20T22:31:27.302Z,39.75
2022-09-20T22:33:52.104Z,40.05
2022-09-20T22:36:16.401Z,39.67
2022-09-20T22:38:39.555Z,39.65
2022-09-20T22:41:04.082Z,39.62
2022-09-20T22:43:27.179Z,39.32
2022-09-20T22:45:50.373Z,39.43
2022-09-20T22:48:13.533Z,39.92
2022-09-20T22:50:36.678Z,39.85
2022-09-20T22:52:59.964Z,39.45
2022-09-20T22:55:24.280Z,39.50
2022-09-20T22:57:53.932Z,39.39
2022-09-20T23:00:17.222Z,39.43
2022-09-20T23:02:40.405Z,39.21
2022-09-20T23:05:03.666Z,38.85
2022-09-20T23:07:26.810Z,39.23
2022-09-20T23:09:50.150Z,39.05
2022-09-20T23:12:13.289Z,39.44
2022-09-20T23:14:37.898Z,39.51
2022-09-20T23:17:00.828Z,39.09
2022-09-20T23:19:24.110Z,38.68
2022-09-20T23:21:47.252Z,38.58
2022-09-20T23:24:11.800Z,38.24
2022-09-20T23:26:35.264Z,38.77
2022-09-20T23:28:59.691Z,40.01
2022-09-20T23:31:26.417Z,40.51
2022-09-20T23:33:49.733Z,40.42
2022-09-20T23:36:12.896Z,40.37
2022-09-20T23:38:36.133Z,40.33
2022-09-20T23:41:03.668Z,40.63
2022-09-20T23:43:26.845Z,40.98
2022-09-20T23:45:51.216Z,41.37
2022-09-20T23:48:15.796Z,41.93
2022-09-20T23:50:39.124Z,41.94
2022-09-20T23:53:02.262Z,41.73
2022-09-20T23:55:25.492Z,41.46
2022-09-20T23:57:50.706Z,40.61
